createdAt,value
2019-02-15T00:01:43.783Z,9.03
2019-02-15T00:06:47.278Z,10.07
2019-02-15T00:11:50.779Z,9.47
2019-02-15T00:16:54.397Z,10.50
2019-02-15T00:21:57.872Z,9.73
2019-02-15T00:27:01.596Z,9.60
2019-02-15T00:32:05.040Z,10.30
2019-02-15T00:37:08.412Z,10.10
2019-02-15T00:42:11.850Z,8.30
2019-02-15T00:47:25.973Z,9.10
2019-02-15T00:52:33.849Z,9.30
2019-02-15T00:57:53.973Z,9.93
2019-02-15T01:02:59.118Z,9.80
2019-02-15T01:08:13.147Z,8.47
2019-02-15T01:13:16.661Z,9.47
2019-02-15T01:18:20.110Z,8.23
2019-02-15T01:23:23.616Z,10.37
2019-02-15T01:28:28.683Z,9.60
2019-02-15T01:33:39.755Z,9.57
2019-02-15T01:38:44.883Z,8.43
2019-02-15T01:44:02.224Z,8.77
2019-02-15T01:49:05.652Z,9.50
2019-02-15T01:54:09.072Z,8.67
2019-02-15T01:59:12.511Z,9.40
2019-02-15T02:04:16.034Z,10.87
2019-02-15T02:09:19.848Z,9.73
2019-02-15T02:14:23.292Z,10.27
2019-02-15T02:19:26.748Z,8.47
2019-02-15T02:24:30.153Z,9.47
2019-02-15T02:29:33.645Z,9.03
2019-02-15T02:34:37.071Z,9.17
2019-02-15T02:39:40.535Z,8.50
2019-02-15T02:44:43.926Z,8.83
2019-02-15T02:49:47.396Z,7.80
2019-02-15T02:54:50.866Z,9.10
2019-02-15T02:59:54.350Z,8.73
2019-02-15T03:04:57.802Z,7.23
2019-02-15T03:10:01.240Z,8.20
2019-02-15T03:15:05.618Z,8.33
2019-02-15T03:20:09.178Z,7.47
2019-02-15T03:25:12.603Z,8.63
2019-02-15T03:30:16.503Z,8.47
2019-02-15T03:35:19.876Z,7.73
2019-02-15T03:40:24.950Z,7.97
2019-02-15T03:45:28.368Z,8.87
2019-02-15T03:50:31.784Z,7.60
2019-02-15T03:55:35.305Z,8.50
2019-02-15T04:00:38.714Z,8.03
2019-02-15T04:05:42.264Z,8.83
2019-02-15T04:10:45.679Z,8.47
2019-02-15T04:15:49.164Z,7.90
2019-02-15T04:20:52.766Z,8.27
2019-02-15T04:25:56.192Z,8.87
2019-02-15T04:30:59.721Z,7.53
2019-02-15T04:36:03.127Z,8.17
2019-02-15T04:41:06.556Z,9.17
2019-02-15T04:46:10.017Z,8.23
2019-02-15T04:51:13.532Z,8.50
2019-02-15T04:56:16.951Z,8.40
2019-02-15T05:01:20.363Z,9.00
2019-02-15T05:06:23.805Z,9.13
2019-02-15T05:11:27.221Z,8.13
2019-02-15T05:16:30.645Z,8.37
2019-02-15T05:21:34.073Z,9.60
2019-02-15T05:26:37.560Z,8.63
2019-02-15T05:31:40.978Z,8.13
2019-02-15T05:36:44.400Z,8.40
2019-02-15T05:41:47.822Z,7.60
2019-02-15T05:46:51.258Z,8.50
2019-02-15T05:51:54.671Z,8.00
2019-02-15T05:56:58.141Z,10.03
2019-02-15T06:02:01.544Z,9.30
2019-02-15T06:07:05.006Z,8.37
2019-02-15T06:12:08.429Z,8.70
2019-02-15T06:17:11.873Z,8.27
2019-02-15T06:22:15.293Z,8.97
2019-02-15T06:27:18.710Z,7.90
2019-02-15T06:32:22.134Z,11.13
2019-02-15T06:37:25.593Z,9.30
2019-02-15T06:42:29.020Z,9.17
2019-02-15T06:47:32.443Z,10.00
2019-02-15T06:52:35.969Z,9.20
2019-02-15T06:57:39.355Z,9.40
2019-02-15T07:02:50.158Z,9.47
2019-02-15T07:07:53.856Z,10.10
2019-02-15T07:12:57.269Z,8.23
2019-02-15T07:18:00.698Z,10.77
2019-02-15T07:23:04.147Z,9.87
2019-02-15T07:28:07.564Z,9.77
2019-02-15T07:33:10.989Z,10.63
2019-02-15T07:38:14.415Z,12.07
2019-02-15T07:43:17.852Z,11.40
2019-02-15T07:48:21.353Z,11.67
2019-02-15T07:53:24.925Z,10.63
2019-02-15T07:58:28.324Z,11.33
2019-02-15T08:03:31.810Z,10.10
2019-02-15T08:08:35.240Z,11.27
2019-02-15T08:13:38.699Z,10.73
2019-02-15T08:18:42.121Z,10.87
2019-02-15T08:23:45.530Z,9.43
2019-02-15T08:28:48.973Z,7.80
2019-02-15T08:33:52.427Z,9.10
2019-02-15T08:38:55.875Z,7.37
2019-02-15T08:43:59.282Z,8.13
2019-02-15T08:49:02.719Z,6.83
2019-02-15T08:54:06.127Z,6.50
2019-02-15T08:59:09.546Z,6.87
2019-02-15T09:04:12.961Z,6.50
2019-02-15T09:09:16.385Z,7.27
2019-02-15T09:14:19.815Z,7.37
2019-02-15T09:19:23.243Z,6.20
2019-02-15T09:24:26.690Z,5.83
2019-02-15T09:29:30.119Z,5.93
2019-02-15T09:34:33.551Z,6.57
2019-02-15T09:39:36.951Z,5.03
2019-02-15T09:44:40.394Z,4.50
2019-02-15T09:49:45.205Z,4.40
2019-02-15T09:54:48.947Z,4.90
2019-02-15T09:59:52.359Z,4.40
2019-02-15T10:04:55.783Z,3.73
2019-02-15T10:09:59.206Z,3.77
2019-02-15T10:15:02.643Z,3.83
2019-02-15T10:20:08.281Z,4.33
2019-02-15T10:25:11.838Z,4.13
2019-02-15T10:30:15.263Z,4.33
2019-02-15T10:35:19.200Z,4.13
2019-02-15T10:40:23.037Z,4.03
2019-02-15T10:45:26.619Z,4.27
2019-02-15T10:50:31.127Z,3.73
2019-02-15T10:55:34.552Z,4.70
2019-02-15T11:00:38.059Z,3.67
2019-02-15T11:05:41.479Z,3.57
2019-02-15T11:10:44.940Z,3.83
2019-02-15T11:15:48.361Z,3.77
2019-02-15T11:20:51.795Z,3.33
2019-02-15T11:25:55.293Z,3.37
2019-02-15T11:30:58.778Z,2.77
2019-02-15T11:36:02.226Z,2.20
2019-02-15T11:41:11.138Z,2.03
2019-02-15T11:46:10.806Z,2.70
2019-02-15T11:51:14.294Z,2.13
2019-02-15T11:56:17.724Z,2.37
2019-02-15T12:01:22.405Z,1.73
2019-02-15T12:06:25.825Z,1.80
2019-02-15T12:11:29.243Z,1.00
2019-02-15T12:16:32.701Z,1.10
2019-02-15T12:21:36.159Z,1.53
2019-02-15T12:26:39.599Z,1.10
2019-02-15T12:31:43.029Z,1.33
2019-02-15T12:36:46.472Z,1.13
2019-02-15T12:41:49.956Z,1.33
2019-02-15T12:46:53.371Z,0.87
2019-02-15T12:51:57.083Z,1.17
2019-02-15T12:57:00.599Z,1.00
2019-02-15T13:02:04.009Z,1.20
2019-02-15T13:07:07.501Z,1.50
2019-02-15T13:12:10.923Z,1.30
2019-02-15T13:17:14.368Z,1.63
2019-02-15T13:22:19.951Z,1.53
2019-02-15T13:27:23.065Z,1.47
2019-02-15T13:32:26.491Z,1.40
2019-02-15T13:37:29.916Z,1.40
2019-02-15T13:42:33.339Z,1.87
2019-02-15T13:47:36.744Z,1.73
2019-02-15T13:52:40.232Z,1.50
2019-02-15T13:57:43.732Z,1.93
2019-02-15T14:02:47.158Z,1.73
2019-02-15T14:07:50.581Z,1.50
2019-02-15T14:12:54.013Z,1.40
2019-02-15T14:17:57.426Z,7.10
2019-02-15T14:23:00.863Z,2.13
2019-02-15T14:28:05.307Z,3.77
2019-02-15T14:33:08.836Z,2.87
2019-02-15T14:38:12.318Z,3.47
2019-02-15T14:43:15.749Z,1.70
2019-02-15T14:48:20.150Z,8.03
2019-02-15T14:53:23.595Z,2.30
2019-02-15T14:58:27.049Z,3.03
2019-02-15T15:03:30.472Z,2.53
2019-02-15T15:08:33.906Z,13.93
2019-02-15T15:13:37.321Z,13.47
2019-02-15T15:18:40.760Z,14.33
2019-02-15T15:23:44.195Z,10.43
2019-02-15T15:28:47.612Z,9.10
2019-02-15T15:33:51.116Z,5.77
2019-02-15T15:38:54.814Z,4.83
2019-02-15T15:43:58.242Z,2.67
2019-02-15T15:49:02.554Z,5.67
2019-02-15T15:54:05.976Z,5.10
2019-02-15T15:59:09.413Z,18.13
2019-02-15T16:04:12.846Z,13.47
2019-02-15T16:09:16.282Z,16.35
2019-02-15T16:14:19.742Z,19.37
2019-02-15T16:19:23.205Z,11.70
2019-02-15T16:24:26.638Z,11.80
2019-02-15T16:29:30.070Z,8.27
2019-02-15T17:05:37.781Z,5.20
2019-02-15T17:10:41.199Z,4.93
2019-02-15T17:15:44.615Z,7.93
2019-02-15T17:20:48.035Z,8.77
2019-02-15T17:25:51.468Z,9.90
2019-02-15T17:30:54.929Z,7.17
2019-02-15T17:35:58.344Z,8.90
2019-02-15T17:41:01.752Z,8.63
2019-02-15T17:46:05.177Z,5.97
2019-02-15T17:51:08.591Z,6.77
2019-02-15T17:56:12.021Z,6.27
2019-02-15T18:01:15.442Z,7.13
2019-02-15T18:06:18.863Z,7.03
2019-02-15T18:11:22.297Z,5.37
2019-02-15T18:16:25.763Z,5.30
2019-02-15T18:21:29.186Z,6.40
2019-02-15T18:26:32.611Z,7.50
2019-02-15T18:31:36.050Z,8.43
2019-02-15T18:36:39.468Z,5.13
2019-02-15T18:41:42.889Z,6.37
2019-02-15T18:46:46.355Z,6.80
2019-02-15T18:51:49.802Z,6.97
2019-02-15T18:56:53.272Z,7.77
2019-02-15T19:01:56.687Z,7.70
2019-02-15T19:07:00.144Z,9.30
2019-02-15T19:12:03.573Z,5.20
2019-02-15T19:17:06.990Z,6.30
2019-02-15T19:22:10.428Z,7.80
2019-02-15T19:27:13.831Z,7.07
2019-02-15T19:32:17.255Z,6.67
2019-02-15T19:37:22.165Z,6.93
2019-02-15T19:42:25.810Z,7.20
2019-02-15T19:47:29.353Z,9.20
2019-02-15T19:52:32.746Z,7.93
2019-02-15T19:57:36.233Z,6.80
2019-02-15T20:02:39.656Z,6.57
2019-02-15T20:07:43.127Z,6.57
2019-02-15T20:12:46.660Z,7.67
2019-02-15T20:17:50.066Z,8.50
2019-02-15T20:22:53.518Z,9.53
2019-02-15T20:27:57.011Z,8.80
2019-02-15T20:33:00.424Z,8.50
2019-02-15T20:38:03.867Z,7.73
2019-02-15T20:43:07.283Z,6.97
2019-02-15T20:48:12.711Z,6.93
2019-02-15T20:53:15.866Z,6.37
2019-02-15T20:58:19.315Z,6.83
2019-02-15T21:03:22.727Z,6.87
2019-02-15T21:08:26.636Z,6.77
2019-02-15T21:13:30.156Z,7.90
2019-02-15T21:18:33.590Z,6.80
2019-02-15T21:23:37.021Z,7.80
2019-02-15T21:28:40.441Z,6.90
2019-02-15T21:33:43.859Z,8.97
2019-02-15T21:38:47.270Z,7.43
2019-02-15T21:43:50.693Z,8.70
2019-02-15T21:48:54.151Z,8.03
2019-02-15T21:53:57.555Z,8.10
2019-02-15T21:59:00.975Z,7.17
2019-02-15T22:04:04.406Z,7.50
2019-02-15T22:09:08.476Z,7.57
2019-02-15T22:14:11.932Z,7.47
2019-02-15T22:19:15.385Z,6.87
2019-02-15T22:24:18.787Z,6.77
2019-02-15T22:29:22.191Z,7.63
2019-02-15T22:34:25.627Z,6.17
2019-02-15T22:39:29.044Z,7.17
2019-02-15T22:44:32.488Z,6.63
2019-02-15T22:49:43.116Z,8.17
2019-02-15T22:54:41.067Z,5.90
2019-02-15T22:59:44.485Z,7.10
2019-02-15T23:04:47.899Z,6.00
2019-02-15T23:09:51.316Z,6.47
2019-02-15T23:14:54.772Z,6.23
2019-02-15T23:19:58.298Z,6.03
2019-02-15T23:25:01.743Z,6.63
2019-02-15T23:30:08.202Z,5.93
2019-02-15T23:35:11.613Z,5.33
2019-02-15T23:40:15.046Z,6.00
2019-02-15T23:45:18.465Z,6.33
2019-02-15T23:50:21.882Z,6.40
2019-02-15T23:55:25.342Z,6.37
